Time;durP1;ratioP1;P1;durP2;ratioP2;P2;SDS_P1;SDS_P2;PMS_P1;PMS_P2;Temp;Humidity;BMP_temperature;BMP_pressure;BME280_temperature;BME280_humidity;BME280_pressure;Samples;Min_cycle;Max_cycle;Signal;HPM_P1;HPM_P2
2021/04/03 06:14:17;;;;;;;9.98;4.80;;;5.90;89.00;;;;;;3592991;39;20384;-64
2021/04/03 06:16:44;;;;;;;13.65;5.35;;;6.30;88.80;;;;;;3589474;39;20064;-63
2021/04/03 06:19:20;;;;;;;14.52;5.75;;;6.90;85.90;;;;;;3580984;39;20371;-64
2021/04/03 06:21:53;;;;;;;10.07;4.57;;;7.80;81.70;;;;;;3588707;39;20146;-64
2021/04/03 06:24:31;;;;;;;12.00;5.05;;;8.30;77.30;;;;;;3570888;39;20166;-65
2021/04/03 06:26:58;;;;;;;10.80;5.00;;;8.60;75.00;;;;;;3587026;39;20165;-64
2021/04/03 06:29:33;;;;;;;10.90;4.80;;;8.60;73.20;;;;;;3587392;39;20075;-64
2021/04/03 06:32:00;;;;;;;13.70;4.47;;;8.60;73.70;;;;;;3586445;39;20064;-64
2021/04/03 06:34:33;;;;;;;11.90;5.32;;;8.50;73.30;;;;;;3578351;39;20869;-64
2021/04/03 06:37:00;;;;;;;9.45;4.53;;;8.50;73.30;;;;;;3589997;39;20524;-63
2021/04/03 06:39:26;;;;;;;10.30;4.32;;;8.40;72.80;;;;;;3589232;39;20072;-63
2021/04/03 06:41:52;;;;;;;9.75;4.60;;;8.30;72.40;;;;;;3591090;39;20056;-62
2021/04/03 06:44:19;;;;;;;10.75;4.35;;;8.30;72.80;;;;;;3590609;39;20308;-62
2021/04/03 06:46:48;;;;;;;11.27;3.88;;;8.80;73.00;;;;;;3587945;39;20181;-61
2021/04/03 06:49:16;;;;;;;9.00;3.83;;;9.80;69.50;;;;;;3574992;39;20356;-64
2021/04/03 06:51:43;;;;;;;8.77;4.03;;;10.60;65.10;;;;;;3578988;39;20068;-60
2021/04/03 06:54:12;;;;;;;7.75;3.60;;;10.80;63.90;;;;;;3588927;39;20083;-64
2021/04/03 06:56:37;;;;;;;8.23;3.72;;;10.60;63.90;;;;;;3590178;39;20622;-63
2021/04/03 06:59:13;;;;;;;6.55;2.92;;;10.60;63.70;;;;;;3589101;39;20080;-61
2021/04/03 07:01:48;;;;;;;6.93;3.47;;;10.70;63.80;;;;;;3589904;39;20060;-62
2021/04/03 07:04:27;;;;;;;5.50;2.40;;;11.20;59.80;;;;;;3588824;39;20067;-63
2021/04/03 07:06:54;;;;;;;7.50;3.08;;;11.60;58.00;;;;;;3589051;39;20092;-61
2021/04/03 07:09:21;;;;;;;7.13;3.15;;;12.00;57.00;;;;;;3585992;39;20093;-63
2021/04/03 07:11:49;;;;;;;14.82;6.10;;;12.40;55.70;;;;;;3586684;39;20428;-62
2021/04/03 07:14:18;;;;;;;4.70;3.25;;;12.50;54.50;;;;;;3587378;39;20068;-63
2021/04/03 07:16:44;;;;;;;24.65;10.48;;;12.80;54.40;;;;;;3589022;39;20154;-65
2021/04/03 07:19:10;;;;;;;8.88;4.05;;;13.10;53.60;;;;;;3587597;39;20178;-63
2021/04/03 07:21:36;;;;;;;10.25;5.03;;;13.40;53.00;;;;;;3576343;39;20091;-65
2021/04/03 07:24:04;;;;;;;6.97;4.00;;;13.70;51.60;;;;;;3580226;39;20069;-63
2021/04/03 07:26:30;;;;;;;10.85;3.63;;;13.90;49.30;;;;;;3580299;40;20490;-64
2021/04/03 07:28:56;;;;;;;18.50;8.63;;;13.90;49.90;;;;;;3582019;40;20087;-64
2021/04/03 07:31:42;;;;;;;5.78;2.67;;;13.80;50.60;;;;;;3583970;40;20117;-63
2021/04/03 07:34:09;;;;;;;5.20;2.85;;;13.70;50.20;;;;;;3580373;40;20086;-63
2021/04/03 07:36:37;;;;;;;7.60;3.70;;;13.90;48.80;;;;;;3582597;40;20765;-63
2021/04/03 07:39:05;;;;;;;5.43;3.03;;;14.00;49.10;;;;;;3580824;40;20060;-64
2021/04/03 07:41:36;;;;;;;4.07;2.50;;;13.70;50.10;;;;;;3582645;40;20092;-64
2021/04/03 07:44:13;;;;;;;4.97;2.47;;;13.70;49.50;;;;;;3581999;40;20257;-63
2021/04/03 07:46:44;;;;;;;4.13;2.42;;;14.00;49.30;;;;;;3582138;40;20161;-62
2021/04/03 07:49:11;;;;;;;4.97;2.30;;;14.30;47.50;;;;;;3583995;40;20072;-64
2021/04/03 07:51:41;;;;;;;4.32;2.20;;;14.70;48.10;;;;;;3581425;40;20072;-63
2021/04/03 07:54:22;;;;;;;3.83;1.92;;;15.30;48.80;;;;;;3579962;40;20163;-63
2021/04/03 07:56:48;;;;;;;5.40;1.67;;;16.10;44.90;;;;;;3584688;40;20063;-63
2021/04/03 07:59:14;;;;;;;4.22;1.83;;;16.60;44.10;;;;;;3582152;40;20060;-63
2021/04/03 08:01:40;;;;;;;2.95;1.67;;;16.50;42.80;;;;;;3582243;40;20084;-63
2021/04/03 08:04:07;;;;;;;3.50;1.80;;;16.90;42.90;;;;;;3573855;40;20170;-63
2021/04/03 08:06:41;;;;;;;3.78;1.90;;;17.40;42.50;;;;;;3577623;40;20056;-63
2021/04/03 08:09:14;;;;;;;6.00;1.90;;;17.70;42.00;;;;;;3579859;40;20788;-63
2021/04/03 08:11:47;;;;;;;3.55;1.50;;;18.00;40.10;;;;;;3577817;40;20072;-63
2021/04/03 08:14:16;;;;;;;3.50;1.70;;;18.30;40.10;;;;;;3578863;40;20064;-63
2021/04/03 08:16:43;;;;;;;4.88;1.50;;;18.50;38.40;;;;;;3581973;40;20215;-63
2021/04/03 08:19:10;;;;;;;3.13;1.40;;;18.40;38.50;;;;;;3581366;40;20063;-62
2021/04/03 08:21:46;;;;;;;3.45;1.45;;;18.40;36.50;;;;;;3582552;40;20845;-63
2021/04/03 08:24:12;;;;;;;;;;;18.40;37.30;;;;;;3579906;40;20045;-62
2021/04/03 08:26:40;;;;;;;2.78;1.33;;;18.20;37.70;;;;;;3581812;40;19935;-63
2021/04/03 08:29:07;;;;;;;1.38;1.00;;;18.00;35.90;;;;;;3583842;40;20068;-63
2021/04/03 08:31:34;;;;;;;2.05;1.17;;;17.90;37.20;;;;;;3581172;40;20489;-62
2021/04/03 08:34:03;;;;;;;3.97;1.00;;;17.90;36.80;;;;;;3580311;40;20096;-63
2021/04/03 08:36:32;;;;;;;3.40;1.10;;;17.90;37.80;;;;;;3564843;40;20084;-62
2021/04/03 08:39:04;;;;;;;3.20;1.42;;;17.50;38.70;;;;;;3575837;40;20200;-62
2021/04/03 08:41:30;;;;;;;3.10;1.20;;;16.70;37.90;;;;;;3579593;40;20068;-62
2021/04/03 08:43:57;;;;;;;2.22;1.02;;;16.40;38.50;;;;;;3578227;40;20052;-65
2021/04/03 08:46:25;;;;;;;3.65;1.00;;;16.40;38.60;;;;;;3579563;40;20818;-64
2021/04/03 08:48:58;;;;;;;1.23;0.80;;;17.00;37.70;;;;;;3581315;40;20822;-63
2021/04/03 08:51:27;;;;;;;5.05;2.78;;;17.50;34.50;;;;;;3580263;40;20061;-64
2021/04/03 08:53:55;;;;;;;2.17;1.35;;;17.90;36.50;;;;;;3581055;40;20072;-65
2021/04/03 08:56:33;;;;;;;4.35;1.27;;;18.20;36.00;;;;;;3579600;40;20075;-64
2021/04/03 08:59:00;;;;;;;2.53;0.98;;;18.70;33.90;;;;;;3580560;40;20065;-65
2021/04/03 09:01:31;;;;;;;2.00;1.02;;;19.20;33.90;;;;;;3580959;40;20071;-65
2021/04/03 09:04:06;;;;;;;2.70;0.90;;;19.80;32.60;;;;;;3574581;40;20061;-65
2021/04/03 09:06:57;;;;;;;2.25;1.00;;;20.00;31.70;;;;;;3579301;40;20148;-65
2021/04/03 09:09:31;;;;;;;4.13;1.05;;;20.00;31.20;;;;;;3579046;40;20591;-65
2021/04/03 09:12:07;;;;;;;1.30;0.95;;;20.10;31.70;;;;;;3578702;40;20393;-64
2021/04/03 09:14:39;;;;;;;2.33;1.25;;;20.30;30.40;;;;;;3577910;40;20189;-62
2021/04/03 09:17:17;;;;;;;2.20;0.88;;;20.40;29.80;;;;;;3574354;40;20076;-62
2021/04/03 09:19:43;;;;;;;1.77;0.98;;;20.30;31.70;;;;;;3574634;40;20096;-65
2021/04/03 09:22:13;;;;;;;2.20;1.08;;;20.50;31.00;;;;;;3580983;40;20167;-65
2021/04/03 09:24:41;;;;;;;1.48;0.70;;;20.40;30.50;;;;;;3577316;40;20060;-65
2021/04/03 09:27:11;;;;;;;1.50;0.77;;;20.20;30.00;;;;;;3579615;40;20066;-65
2021/04/03 09:29:37;;;;;;;2.97;0.80;;;19.50;30.60;;;;;;3581104;40;20060;-64
2021/04/03 09:32:07;;;;;;;2.20;0.70;;;18.80;32.90;;;;;;3581172;40;20409;-69
2021/04/03 09:34:34;;;;;;;3.40;0.98;;;18.80;33.00;;;;;;3582713;40;20177;-62
2021/04/03 09:37:15;;;;;;;3.40;1.17;;;19.40;33.10;;;;;;3580903;40;20064;-65
2021/04/03 09:39:52;;;;;;;1.88;0.77;;;19.60;32.20;;;;;;3578147;40;20159;-65
2021/04/03 09:42:20;;;;;;;3.05;0.90;;;19.10;31.30;;;;;;3578642;40;20280;-64
2021/04/03 09:44:47;;;;;;;1.63;0.82;;;18.40;32.30;;;;;;3580555;40;20072;-66
2021/04/03 09:47:13;;;;;;;0.90;0.70;;;18.10;33.70;;;;;;3580032;40;20064;-65
2021/04/03 09:49:40;;;;;;;1.33;1.02;;;17.80;33.10;;;;;;3576974;40;20065;-64
2021/04/03 09:52:07;;;;;;;2.97;0.98;;;17.50;33.40;;;;;;3583484;40;20083;-64
2021/04/03 09:54:34;;;;;;;3.85;0.82;;;16.90;33.10;;;;;;3580823;40;20859;-64
2021/04/03 09:57:03;;;;;;;2.58;0.65;;;16.60;35.90;;;;;;3577960;40;20064;-65
2021/04/03 09:59:29;;;;;;;2.28;0.60;;;17.00;34.30;;;;;;3577114;40;20069;-64
2021/04/03 10:01:56;;;;;;;2.10;1.00;;;17.50;31.60;;;;;;3579322;40;20832;-65
2021/04/03 10:04:23;;;;;;;1.48;0.65;;;17.40;33.10;;;;;;3581766;40;20175;-64
2021/04/03 10:06:49;;;;;;;3.40;1.02;;;17.80;34.00;;;;;;3581783;40;20076;-64
2021/04/03 10:09:14;;;;;;;4.22;0.88;;;18.10;32.60;;;;;;3576736;40;20212;-64
2021/04/03 10:11:40;;;;;;;2.10;0.68;;;17.40;32.00;;;;;;3580487;40;20065;-65
2021/04/03 10:14:06;;;;;;;1.17;0.60;;;16.90;33.40;;;;;;3571784;40;20049;-65
2021/04/03 10:16:32;;;;;;;1.85;0.70;;;16.50;34.10;;;;;;3583093;40;20080;-64
2021/04/03 10:18:58;;;;;;;1.65;0.70;;;16.20;35.10;;;;;;3582186;40;20064;-64
2021/04/03 10:21:24;;;;;;;4.10;0.90;;;15.90;35.60;;;;;;3577839;40;20387;-64
2021/04/03 10:23:51;;;;;;;1.55;0.80;;;15.70;37.30;;;;;;3580439;40;20107;-65
2021/04/03 10:26:17;;;;;;;1.73;0.60;;;16.20;36.30;;;;;;3580304;40;20840;-64
2021/04/03 10:28:42;;;;;;;1.95;0.60;;;16.50;34.10;;;;;;3579679;40;20522;-64
2021/04/03 10:31:08;;;;;;;0.90;0.57;;;16.30;34.70;;;;;;3583303;40;20061;-64
2021/04/03 10:33:36;;;;;;;0.70;0.50;;;16.00;35.10;;;;;;3582958;40;20104;-64
2021/04/03 10:36:03;;;;;;;3.13;0.70;;;15.50;35.00;;;;;;3567259;40;20167;-64
2021/04/03 10:38:28;;;;;;;2.17;0.70;;;15.10;36.90;;;;;;3579766;40;20051;-64
2021/04/03 10:40:54;;;;;;;1.88;0.70;;;14.80;38.40;;;;;;3576492;40;20056;-64
2021/04/03 10:43:20;;;;;;;2.13;0.60;;;14.60;38.20;;;;;;3576283;40;20201;-64
2021/04/03 10:45:45;;;;;;;0.95;0.60;;;14.50;37.80;;;;;;3579670;40;20068;-64
2021/04/03 10:48:11;;;;;;;2.15;0.70;;;14.40;37.80;;;;;;3575077;40;20076;-64
2021/04/03 10:50:37;;;;;;;2.05;0.50;;;14.30;38.30;;;;;;3577383;40;20170;-65
2021/04/03 10:53:04;;;;;;;2.55;1.00;;;14.30;38.40;;;;;;3578103;40;20103;-65
2021/04/03 10:55:31;;;;;;;1.83;0.60;;;14.30;38.70;;;;;;3574473;40;20076;-64
2021/04/03 10:57:57;;;;;;;0.82;0.40;;;14.30;38.60;;;;;;3582551;40;20061;-64
2021/04/03 11:00:23;;;;;;;1.52;0.73;;;14.20;37.30;;;;;;3580654;40;20471;-64
2021/04/03 11:02:49;;;;;;;2.67;0.60;;;14.00;38.70;;;;;;3580591;40;20092;-64
2021/04/03 11:05:15;;;;;;;1.90;0.60;;;13.70;39.90;;;;;;3570279;40;20155;-65
2021/04/03 11:07:40;;;;;;;1.38;0.55;;;13.60;40.50;;;;;;3580207;40;20080;-64
2021/04/03 11:10:07;;;;;;;1.52;0.80;;;13.50;40.50;;;;;;3582299;40;20071;-64
2021/04/03 11:12:32;;;;;;;1.02;0.60;;;13.50;40.20;;;;;;3583698;40;20226;-64
2021/04/03 11:14:58;;;;;;;1.77;0.50;;;13.60;40.40;;;;;;3582833;40;20140;-63
2021/04/03 11:17:24;;;;;;;1.13;0.50;;;13.50;38.70;;;;;;3581821;40;20421;-64
2021/04/03 11:19:49;;;;;;;2.63;1.00;;;13.50;40.60;;;;;;3581595;40;20067;-64
2021/04/03 11:22:15;;;;;;;2.78;0.80;;;13.40;39.60;;;;;;3577889;40;20073;-64
2021/04/03 11:24:41;;;;;;;1.20;0.60;;;13.30;41.40;;;;;;3581966;40;20068;-64
2021/04/03 11:27:07;;;;;;;1.27;0.50;;;13.10;40.10;;;;;;3571381;40;20064;-64
2021/04/03 11:29:32;;;;;;;12.05;6.13;;;13.10;42.00;;;;;;3584172;40;20067;-64
2021/04/03 11:31:58;;;;;;;3.25;1.30;;;13.20;43.20;;;;;;3573565;40;20237;-65
2021/04/03 11:34:25;;;;;;;1.48;0.82;;;13.40;41.10;;;;;;3580422;40;20064;-65
2021/04/03 11:36:51;;;;;;;5.78;2.47;;;13.50;41.80;;;;;;3580443;40;20204;-65
2021/04/03 11:39:17;;;;;;;3.00;0.75;;;13.80;38.30;;;;;;3577357;40;20061;-65
2021/04/03 11:41:42;;;;;;;1.45;1.00;;;13.80;38.20;;;;;;3581890;40;20059;-68
2021/04/03 11:44:08;;;;;;;2.67;1.00;;;13.80;39.30;;;;;;3579335;40;20881;-65
2021/04/03 11:46:34;;;;;;;1.23;0.88;;;13.80;38.60;;;;;;3581661;40;20056;-64
2021/04/03 11:49:00;;;;;;;1.65;0.70;;;13.70;38.80;;;;;;3583371;39;20079;-65
2021/04/03 11:51:25;;;;;;;1.25;0.60;;;13.80;39.80;;;;;;3571955;40;20461;-65
2021/04/03 11:53:52;;;;;;;2.45;1.45;;;13.80;39.10;;;;;;3584658;40;20065;-64
2021/04/03 11:56:18;;;;;;;0.73;0.60;;;13.80;39.20;;;;;;3582054;40;20049;-64
2021/04/03 11:58:43;;;;;;;3.28;2.17;;;13.80;38.60;;;;;;3572474;40;20088;-64
2021/04/03 12:01:10;;;;;;;2.78;2.00;;;13.80;38.20;;;;;;3579195;40;20065;-64
2021/04/03 12:03:35;;;;;;;2.63;1.73;;;13.70;37.50;;;;;;3578194;40;20711;-64
2021/04/03 12:06:01;;;;;;;3.05;2.55;;;13.80;36.10;;;;;;3580027;40;20076;-65
2021/04/03 12:08:27;;;;;;;1.35;1.10;;;14.00;36.30;;;;;;3582817;40;20053;-64
2021/04/03 12:10:52;;;;;;;1.05;0.70;;;14.00;35.30;;;;;;3574208;40;20193;-64
2021/04/03 12:13:18;;;;;;;2.45;0.95;;;14.00;35.30;;;;;;3580963;40;20075;-64
2021/04/03 12:15:44;;;;;;;1.67;1.23;;;13.70;36.40;;;;;;3581342;40;20182;-64
2021/04/03 12:18:10;;;;;;;8.52;3.65;;;13.70;37.60;;;;;;3576704;40;20080;-64
2021/04/03 12:20:35;;;;;;;4.13;1.80;;;13.70;38.10;;;;;;3581829;40;20053;-65
2021/04/03 12:23:01;;;;;;;2.10;1.20;;;13.60;38.20;;;;;;3580091;40;20072;-65
2021/04/03 12:25:28;;;;;;;1.85;0.90;;;13.60;39.20;;;;;;3582548;40;20429;-65
2021/04/03 12:27:54;;;;;;;2.22;1.10;;;13.50;39.40;;;;;;3575852;40;20076;-65
2021/04/03 12:30:21;;;;;;;1.25;0.82;;;13.30;39.70;;;;;;3579126;40;20048;-65
2021/04/03 12:32:46;;;;;;;2.53;1.10;;;13.30;41.00;;;;;;3579293;40;20072;-65
2021/04/03 12:35:13;;;;;;;2.40;0.98;;;13.40;41.30;;;;;;3579564;40;20080;-64
2021/04/03 12:37:39;;;;;;;5.53;2.65;;;13.50;39.00;;;;;;3577079;40;20052;-65
2021/04/03 12:40:06;;;;;;;1.45;0.80;;;13.70;39.00;;;;;;3580586;40;20065;-65
2021/04/03 12:42:33;;;;;;;1.15;0.90;;;13.80;38.40;;;;;;3576444;40;20080;-64
2021/04/03 12:44:59;;;;;;;1.15;0.77;;;14.00;38.30;;;;;;3578776;40;20064;-65
2021/04/03 12:47:25;;;;;;;2.75;0.70;;;13.90;35.40;;;;;;3581719;40;20080;-64
2021/04/03 12:49:51;;;;;;;2.85;1.00;;;13.80;36.50;;;;;;3578715;40;20064;-65
2021/04/03 12:52:16;;;;;;;1.60;0.85;;;13.80;36.90;;;;;;3577319;40;20065;-64
2021/04/03 12:54:42;;;;;;;1.10;0.90;;;13.80;37.70;;;;;;3579336;40;20460;-65
2021/04/03 12:57:09;;;;;;;0.90;0.35;;;13.80;37.20;;;;;;3580405;40;20581;-65
2021/04/03 12:59:35;;;;;;;1.05;0.55;;;13.70;37.40;;;;;;3578883;40;20056;-65
2021/04/03 13:02:00;;;;;;;2.47;0.82;;;13.50;38.10;;;;;;3581695;40;20088;-64
2021/04/03 13:04:26;;;;;;;2.50;0.50;;;13.30;38.90;;;;;;3580171;40;20716;-65
2021/04/03 13:06:52;;;;;;;1.65;0.88;;;13.40;38.80;;;;;;3582595;40;20484;-65
2021/04/03 13:09:18;;;;;;;10.35;7.47;;;13.40;38.90;;;;;;3584237;40;20149;-64
2021/04/03 13:11:43;;;;;;;21.60;14.05;;;13.40;38.90;;;;;;3580255;40;20494;-65
2021/04/03 13:14:09;;;;;;;9.02;7.20;;;13.50;38.40;;;;;;3578886;40;20106;-65
2021/04/03 13:16:35;;;;;;;46.85;27.77;;;13.60;38.50;;;;;;3583824;40;20056;-65
2021/04/03 13:19:01;;;;;;;3.55;1.30;;;13.80;37.20;;;;;;3582266;40;20182;-65
2021/04/03 13:21:26;;;;;;;30.15;25.02;;;14.00;34.80;;;;;;3581897;40;20162;-64
2021/04/03 13:23:52;;;;;;;11.10;7.80;;;13.80;36.00;;;;;;3577700;40;20053;-65
2021/04/03 13:26:18;;;;;;;18.17;12.30;;;13.90;34.70;;;;;;3575825;40;20057;-65
2021/04/03 13:28:43;;;;;;;3.42;2.30;;;13.80;35.00;;;;;;3579714;40;20088;-65
2021/04/03 13:31:09;;;;;;;2.78;2.58;;;13.80;33.90;;;;;;3581244;40;20057;-65
2021/04/03 13:33:35;;;;;;;3.63;3.28;;;13.80;35.90;;;;;;3575748;40;20144;-65
2021/04/03 13:36:01;;;;;;;2.22;1.10;;;13.80;34.60;;;;;;3578722;40;20100;-65
2021/04/03 13:38:26;;;;;;;1.85;0.77;;;13.90;34.00;;;;;;3581716;40;20048;-64
2021/04/03 13:40:52;;;;;;;1.98;1.77;;;14.10;33.90;;;;;;3576882;40;20068;-65
2021/04/03 13:43:18;;;;;;;3.42;0.90;;;14.40;34.30;;;;;;3577568;40;20666;-64
2021/04/03 13:45:43;;;;;;;2.65;1.48;;;14.80;33.80;;;;;;3580743;40;20067;-65
2021/04/03 13:48:09;;;;;;;1.92;1.30;;;15.00;32.30;;;;;;3578495;40;20138;-65
2021/04/03 13:50:36;;;;;;;18.55;14.18;;;15.10;32.50;;;;;;3583725;40;20158;-65
2021/04/03 13:53:02;;;;;;;11.77;9.35;;;15.10;32.60;;;;;;3578358;40;20159;-65
2021/04/03 13:55:27;;;;;;;5.93;4.35;;;15.00;32.70;;;;;;3579197;40;20166;-64
2021/04/03 13:57:53;;;;;;;1.30;1.20;;;14.80;32.00;;;;;;3574923;40;20080;-65
2021/04/03 14:00:19;;;;;;;3.53;3.22;;;14.60;31.50;;;;;;3576680;40;20080;-65
2021/04/03 14:02:45;;;;;;;3.75;1.30;;;14.50;32.50;;;;;;3579632;40;20064;-65
2021/04/03 14:05:12;;;;;;;4.00;1.38;;;14.60;32.80;;;;;;3583111;40;20060;-65
2021/04/03 14:07:37;;;;;;;2.13;1.63;;;14.80;34.00;;;;;;3582855;40;20203;-65
2021/04/03 14:10:04;;;;;;;1.23;1.13;;;14.80;33.20;;;;;;3578728;40;20476;-65
2021/04/03 14:12:29;;;;;;;0.40;0.40;;;14.80;33.10;;;;;;3566747;40;20076;-65
2021/04/03 14:14:55;;;;;;;3.30;1.08;;;14.90;31.60;;;;;;3581383;40;20306;-65
2021/04/03 14:17:21;;;;;;;1.55;0.80;;;14.80;33.70;;;;;;3581634;40;20052;-65
2021/04/03 14:19:46;;;;;;;2.25;1.58;;;14.70;33.20;;;;;;3579540;40;20057;-65
2021/04/03 14:22:12;;;;;;;2.13;1.92;;;14.60;34.00;;;;;;3571056;40;20078;-65
2021/04/03 14:24:38;;;;;;;1.80;0.90;;;14.50;33.90;;;;;;3580641;40;20068;-64
2021/04/03 14:27:05;;;;;;;1.60;0.77;;;14.30;33.70;;;;;;3579721;40;20088;-64
2021/04/03 14:29:31;;;;;;;4.07;1.50;;;14.20;33.50;;;;;;3577964;40;20780;-65
2021/04/03 14:31:57;;;;;;;0.93;0.70;;;14.20;33.70;;;;;;3582700;40;20079;-65
2021/04/03 14:34:22;;;;;;;4.15;2.45;;;14.10;34.20;;;;;;3579987;40;20076;-65
2021/04/03 14:36:48;;;;;;;2.13;1.02;;;14.20;34.30;;;;;;3582721;40;20064;-65
2021/04/03 14:39:15;;;;;;;2.70;1.00;;;14.10;34.30;;;;;;3566558;40;20777;-64
2021/04/03 14:41:41;;;;;;;5.13;3.30;;;14.00;33.90;;;;;;3577298;40;20059;-65
2021/04/03 14:44:09;;;;;;;1.88;0.93;;;13.80;33.70;;;;;;3580621;40;20161;-65
2021/04/03 14:46:35;;;;;;;3.67;2.70;;;13.70;33.30;;;;;;3584510;40;20805;-65
2021/04/03 14:49:01;;;;;;;3.15;1.85;;;13.70;32.40;;;;;;3583057;40;20157;-65
2021/04/03 14:51:27;;;;;;;1.20;0.63;;;13.80;32.10;;;;;;3571167;40;20205;-65
2021/04/03 14:53:53;;;;;;;2.40;1.40;;;13.90;32.00;;;;;;3581294;40;20071;-64
2021/04/03 14:56:18;;;;;;;1.85;1.27;;;13.80;32.50;;;;;;3570000;40;20056;-65
2021/04/03 14:58:44;;;;;;;1.73;1.10;;;13.80;32.80;;;;;;3581033;40;20483;-65
2021/04/03 15:01:12;;;;;;;17.58;11.27;;;13.80;32.30;;;;;;3581692;40;20171;-65
2021/04/03 15:03:38;;;;;;;5.80;2.25;;;13.70;33.70;;;;;;3583643;40;20073;-65
2021/04/03 15:06:05;;;;;;;5.15;2.05;;;13.60;33.60;;;;;;3579520;40;20827;-65
2021/04/03 15:08:31;;;;;;;4.32;1.98;;;13.70;33.50;;;;;;3581899;40;20080;-65
2021/04/03 15:10:57;;;;;;;2.72;1.67;;;13.70;32.10;;;;;;3578968;40;20096;-65
2021/04/03 15:13:23;;;;;;;6.53;4.05;;;13.70;32.90;;;;;;3580227;40;20145;-65
2021/04/03 15:15:49;;;;;;;5.38;3.33;;;13.60;33.80;;;;;;3581925;40;20080;-65
2021/04/03 15:18:15;;;;;;;2.95;1.77;;;13.70;31.90;;;;;;3583371;40;20164;-65
2021/04/03 15:20:41;;;;;;;1.88;0.95;;;13.60;32.20;;;;;;3582793;40;20346;-65
2021/04/03 15:23:07;;;;;;;1.33;1.08;;;13.50;33.20;;;;;;3581669;40;20079;-65
2021/04/03 15:25:32;;;;;;;5.25;1.98;;;13.50;33.60;;;;;;3583019;40;20159;-65
2021/04/03 15:27:58;;;;;;;19.80;15.18;;;13.50;32.50;;;;;;3583229;40;20057;-65
2021/04/03 15:30:25;;;;;;;6.03;3.70;;;13.60;31.70;;;;;;3567876;40;20519;-64
2021/04/03 15:32:51;;;;;;;1.00;0.90;;;13.50;32.20;;;;;;3581303;40;20104;-64
2021/04/03 15:35:16;;;;;;;0.50;0.45;;;13.30;32.40;;;;;;3582454;40;20485;-65
2021/04/03 15:37:42;;;;;;;2.92;1.00;;;13.20;31.30;;;;;;3583669;40;20293;-65
2021/04/03 15:40:08;;;;;;;1.58;0.93;;;13.10;32.70;;;;;;3580964;40;20080;-64
2021/04/03 15:42:34;;;;;;;1.73;1.25;;;13.00;31.50;;;;;;3577897;40;20073;-64
2021/04/03 15:45:00;;;;;;;2.38;1.23;;;12.90;32.70;;;;;;3578668;40;20040;-64
2021/04/03 15:47:26;;;;;;;3.63;2.53;;;12.90;33.50;;;;;;3579431;40;20184;-65
2021/04/03 15:49:51;;;;;;;8.60;5.43;;;12.80;33.60;;;;;;3578233;40;20071;-65
2021/04/03 15:52:17;;;;;;;7.38;4.28;;;12.80;34.10;;;;;;3574600;40;20192;-65
2021/04/03 15:54:43;;;;;;;1.73;1.13;;;12.70;34.30;;;;;;3575922;40;20072;-64
2021/04/03 15:57:13;;;;;;;2.92;1.92;;;12.60;33.20;;;;;;3578527;40;20068;-65
2021/04/03 15:59:39;;;;;;;2.40;1.83;;;12.50;34.30;;;;;;3581554;40;20454;-66
2021/04/03 16:02:05;;;;;;;2.95;1.50;;;12.40;35.40;;;;;;3581971;40;20065;-64
2021/04/03 16:04:32;;;;;;;2.13;1.33;;;12.40;33.40;;;;;;3578357;40;20082;-64
2021/04/03 16:06:57;;;;;;;1.17;0.63;;;12.30;34.00;;;;;;3577681;40;20080;-64
2021/04/03 16:09:23;;;;;;;3.10;2.10;;;12.20;34.20;;;;;;3576821;40;20080;-65
2021/04/03 16:11:49;;;;;;;1.83;1.00;;;12.10;34.30;;;;;;3577834;40;20087;-65
2021/04/03 16:14:16;;;;;;;1.50;1.00;;;12.00;33.60;;;;;;3580766;40;20742;-65
2021/04/03 16:16:42;;;;;;;0.40;0.40;;;12.00;34.30;;;;;;3577781;40;20053;-65
2021/04/03 16:19:07;;;;;;;1.80;1.40;;;11.90;35.00;;;;;;3567893;40;20076;-64
2021/04/03 16:21:33;;;;;;;1.70;1.25;;;11.90;36.10;;;;;;3580660;40;20056;-64
2021/04/03 16:23:59;;;;;;;1.95;1.08;;;11.90;34.20;;;;;;3581948;40;20180;-64
2021/04/03 16:26:25;;;;;;;6.43;2.47;;;11.80;34.40;;;;;;3573548;40;20104;-64
2021/04/03 16:28:51;;;;;;;0.75;0.40;;;11.70;37.00;;;;;;3571424;40;20144;-65
2021/04/03 16:31:16;;;;;;;0.77;0.40;;;11.60;35.50;;;;;;3581269;40;20102;-64
2021/04/03 16:33:42;;;;;;;0.82;0.38;;;11.60;36.20;;;;;;3575734;40;20073;-64
2021/04/03 16:36:08;;;;;;;0.75;0.40;;;11.40;36.40;;;;;;3577126;40;20052;-64
2021/04/03 16:38:34;;;;;;;1.88;1.08;;;11.30;37.00;;;;;;3581792;40;20060;-64
2021/04/03 16:40:59;;;;;;;1.42;0.88;;;11.20;37.20;;;;;;3577763;40;20063;-64
2021/04/03 16:43:25;;;;;;;1.73;0.57;;;11.10;36.50;;;;;;3575316;40;20298;-65
2021/04/03 16:45:51;;;;;;;0.40;0.40;;;11.00;37.60;;;;;;3580702;40;20068;-65
2021/04/03 16:48:17;;;;;;;2.92;0.50;;;10.80;39.20;;;;;;3579073;40;20065;-65
2021/04/03 16:50:45;;;;;;;0.70;0.47;;;10.80;38.90;;;;;;3578045;40;20071;-65
2021/04/03 16:53:11;;;;;;;0.77;0.50;;;10.70;38.10;;;;;;3580599;40;20430;-64
2021/04/03 16:55:37;;;;;;;0.63;0.22;;;10.60;38.00;;;;;;3578507;40;20057;-65
2021/04/03 16:58:03;;;;;;;0.43;0.40;;;10.60;39.70;;;;;;3575032;40;20511;-64
2021/04/03 17:00:30;;;;;;;1.85;0.50;;;10.50;39.90;;;;;;3580484;40;20520;-64
2021/04/03 17:02:55;;;;;;;2.20;0.75;;;10.30;38.00;;;;;;3579857;40;20069;-65
2021/04/03 17:05:21;;;;;;;0.70;0.45;;;10.20;39.40;;;;;;3569009;40;20098;-65
2021/04/03 17:07:47;;;;;;;0.43;0.20;;;10.10;40.00;;;;;;3580117;40;20088;-65
2021/04/03 17:10:13;;;;;;;1.00;0.30;;;10.00;39.90;;;;;;3580301;40;20079;-65
2021/04/03 17:12:39;;;;;;;1.27;0.30;;;9.90;40.40;;;;;;3578434;40;20884;-64
2021/04/03 17:15:06;;;;;;;0.50;0.20;;;9.80;40.30;;;;;;3576514;40;20072;-64
2021/04/03 17:17:32;;;;;;;1.60;0.60;;;9.70;40.40;;;;;;3579702;40;20486;-64
2021/04/03 17:19:59;;;;;;;1.27;0.50;;;9.60;41.60;;;;;;3578321;40;20169;-64
2021/04/03 17:22:25;;;;;;;1.52;0.40;;;9.40;41.80;;;;;;3583760;40;20071;-64
2021/04/03 17:24:51;;;;;;;1.95;0.30;;;9.30;41.70;;;;;;3582561;40;20056;-64
2021/04/03 17:27:17;;;;;;;0.93;0.45;;;9.30;41.80;;;;;;3580401;40;20075;-65
2021/04/03 17:29:42;;;;;;;0.85;0.38;;;9.20;43.30;;;;;;3577672;40;20290;-64
2021/04/03 17:32:08;;;;;;;0.40;0.32;;;9.10;44.30;;;;;;3574256;40;20057;-64
2021/04/03 17:34:34;;;;;;;0.52;0.30;;;9.00;42.20;;;;;;3580581;40;20586;-66
2021/04/03 17:37:01;;;;;;;1.52;0.35;;;8.90;43.20;;;;;;3579001;40;20200;-64
2021/04/03 17:39:27;;;;;;;0.52;0.20;;;8.90;43.00;;;;;;3575802;40;20483;-64
2021/04/03 17:41:52;;;;;;;0.63;0.40;;;8.80;44.60;;;;;;3577064;40;20164;-64
2021/04/03 17:44:18;;;;;;;1.45;0.52;;;8.80;43.30;;;;;;3577688;40;20096;-64
2021/04/03 17:46:44;;;;;;;1.73;0.70;;;8.70;43.90;;;;;;3579471;40;20045;-64
2021/04/03 17:49:10;;;;;;;0.70;0.30;;;8.60;45.10;;;;;;3582438;40;20469;-64
2021/04/03 17:51:35;;;;;;;1.17;0.60;;;8.60;44.70;;;;;;3580033;40;20307;-64
2021/04/03 17:54:01;;;;;;;1.25;0.50;;;8.40;44.40;;;;;;3582333;40;20667;-65
2021/04/03 17:56:29;;;;;;;0.40;0.40;;;8.40;44.60;;;;;;3583895;40;20053;-64
2021/04/03 17:58:54;;;;;;;1.65;0.70;;;8.30;44.20;;;;;;3578383;40;20080;-64
2021/04/03 18:01:20;;;;;;;0.50;0.50;;;8.20;45.30;;;;;;3562192;40;20049;-64
2021/04/03 18:03:46;;;;;;;2.75;0.50;;;8.20;45.90;;;;;;3571136;40;20150;-65
2021/04/03 18:06:11;;;;;;;1.50;0.50;;;8.10;45.80;;;;;;3580019;40;20067;-64
2021/04/03 18:08:38;;;;;;;0.55;0.40;;;8.00;45.60;;;;;;3579972;40;20086;-63
2021/04/03 18:11:05;;;;;;;0.45;0.45;;;7.90;46.30;;;;;;3579490;40;20076;-64
2021/04/03 18:13:31;;;;;;;1.00;0.63;;;7.90;46.70;;;;;;3577551;40;20114;-64
2021/04/03 18:15:56;;;;;;;2.55;1.02;;;7.90;47.50;;;;;;3576408;40;20553;-64
2021/04/03 18:18:22;;;;;;;8.15;4.07;;;7.80;47.00;;;;;;3580281;40;20064;-65
2021/04/03 18:20:49;;;;;;;11.43;5.90;;;7.70;48.20;;;;;;3581518;40;20166;-65
2021/04/03 18:23:16;;;;;;;14.05;7.40;;;7.60;48.80;;;;;;3576320;40;20099;-64
2021/04/03 18:25:42;;;;;;;3.67;2.97;;;7.50;49.90;;;;;;3581327;40;21047;-64
2021/04/03 18:28:08;;;;;;;3.75;2.28;;;7.50;49.60;;;;;;3582014;40;20060;-64
2021/04/03 18:30:35;;;;;;;2.55;1.65;;;7.40;48.90;;;;;;3579184;40;20173;-65
2021/04/03 18:33:03;;;;;;;3.50;1.95;;;7.30;49.10;;;;;;3579769;40;20440;-64
2021/04/03 18:35:29;;;;;;;1.88;1.50;;;7.20;50.20;;;;;;3581778;40;20060;-64
2021/04/03 18:37:55;;;;;;;3.25;1.75;;;7.10;49.10;;;;;;3582343;40;20056;-64
2021/04/03 18:40:23;;;;;;;5.78;1.27;;;7.10;50.00;;;;;;3580078;40;20753;-64
2021/04/03 18:42:52;;;;;;;2.38;1.48;;;7.10;49.70;;;;;;3577477;40;20076;-63
2021/04/03 18:45:19;;;;;;;1.55;0.98;;;7.00;49.50;;;;;;3573277;40;20097;-63
2021/04/03 18:47:44;;;;;;;1.30;0.90;;;7.00;49.60;;;;;;3580172;40;20177;-64
2021/04/03 18:50:14;;;;;;;1.45;0.90;;;7.00;50.40;;;;;;3577760;40;20095;-63
2021/04/03 18:52:40;;;;;;;4.75;2.25;;;6.90;50.10;;;;;;3570616;40;20096;-64
2021/04/03 18:55:07;;;;;;;5.70;2.33;;;6.90;51.00;;;;;;3580464;40;20500;-63
2021/04/03 18:57:32;;;;;;;1.77;1.10;;;6.80;50.50;;;;;;3578048;40;20076;-63
2021/04/03 18:59:58;;;;;;;1.17;0.80;;;6.80;50.30;;;;;;3574567;40;20071;-63